createdAt,value
2019-04-29T00:04:38.016Z,7.10
2019-04-29T00:09:23.454Z,7.20
2019-04-29T00:14:09.295Z,7.10
2019-04-29T00:19:24.954Z,7.10
2019-04-29T00:24:09.889Z,7.10
2019-04-29T00:28:55.895Z,7.00
2019-04-29T00:33:42.758Z,7.00
2019-04-29T00:38:44.606Z,6.90
2019-04-29T00:43:46.744Z,6.80
2019-04-29T00:48:31.511Z,6.80
2019-04-29T00:53:16.142Z,6.80
2019-04-29T00:58:00.790Z,6.80
2019-04-29T01:02:45.465Z,6.90
2019-04-29T01:07:32.027Z,6.90
2019-04-29T01:12:16.839Z,7.00
2019-04-29T01:17:01.659Z,6.90
2019-04-29T01:21:46.791Z,7.00
2019-04-29T01:26:50.253Z,7.10
2019-04-29T01:31:34.997Z,7.10
2019-04-29T01:36:36.721Z,7.20
2019-04-29T01:41:23.469Z,7.20
2019-04-29T01:46:08.352Z,7.20
2019-04-29T01:50:53.049Z,7.20
2019-04-29T01:55:37.762Z,7.10
2019-04-29T02:00:22.502Z,7.10
2019-04-29T02:05:07.261Z,7.20
2019-04-29T02:10:00.735Z,7.20
2019-04-29T02:14:45.793Z,7.20
2019-04-29T02:19:30.656Z,7.30
2019-04-29T02:24:17.888Z,7.40
2019-04-29T02:29:02.616Z,7.40
2019-04-29T02:33:47.446Z,7.40
2019-04-29T02:38:44.329Z,7.40
2019-04-29T02:43:31.320Z,7.40
2019-04-29T02:48:16.133Z,7.40
2019-04-29T02:53:00.951Z,7.40
2019-04-29T02:58:12.485Z,7.40
2019-04-29T03:03:02.405Z,7.40
2019-04-29T03:07:47.177Z,7.40
2019-04-29T03:12:32.062Z,7.30
2019-04-29T03:17:18.839Z,7.30
2019-04-29T03:22:05.197Z,7.30
2019-04-29T03:26:50.004Z,7.30
2019-04-29T03:31:39.080Z,7.30
2019-04-29T03:36:21.429Z,7.30
2019-04-29T03:41:06.179Z,7.30
2019-04-29T03:45:51.324Z,7.30
2019-04-29T03:50:36.055Z,7.40
2019-04-29T03:55:38.131Z,7.40
2019-04-29T04:00:07.744Z,7.30
2019-04-29T04:05:03.155Z,7.30
2019-04-29T04:09:48.320Z,7.40
2019-04-29T04:14:36.031Z,7.50
2019-04-29T04:19:24.796Z,7.40
2019-04-29T04:24:09.787Z,7.50
2019-04-29T04:28:56.674Z,7.60
2019-04-29T04:33:41.635Z,7.60
2019-04-29T04:38:26.557Z,7.60
2019-04-29T04:43:13.323Z,7.60
2019-04-29T04:47:58.139Z,7.70
2019-04-29T04:52:43.378Z,7.70
2019-04-29T04:57:28.113Z,7.70
2019-04-29T05:02:13.010Z,7.70
2019-04-29T05:06:57.633Z,7.70
2019-04-29T05:11:42.369Z,7.70
2019-04-29T05:16:26.963Z,7.60
2019-04-29T05:21:11.750Z,7.60
2019-04-29T05:25:56.523Z,7.50
2019-04-29T05:30:41.261Z,7.40
2019-04-29T05:35:45.237Z,7.40
2019-04-29T05:40:47.354Z,7.40
2019-04-29T05:45:41.492Z,7.30
2019-04-29T05:50:47.489Z,7.30
2019-04-29T05:55:30.263Z,7.20
2019-04-29T06:00:18.906Z,7.30
2019-04-29T06:05:02.745Z,7.20
2019-04-29T06:09:58.999Z,7.20
2019-04-29T06:14:44.019Z,7.10
2019-04-29T06:19:28.964Z,7.20
2019-04-29T06:24:16.544Z,7.10
2019-04-29T06:29:01.468Z,7.10
2019-04-29T06:33:46.364Z,7.10
2019-04-29T06:38:31.306Z,7.10
2019-04-29T06:43:24.511Z,7.10
2019-04-29T06:48:07.569Z,7.20
2019-04-29T06:52:52.714Z,7.20
2019-04-29T06:57:38.963Z,7.10
2019-04-29T07:02:24.143Z,7.10
2019-04-29T07:07:11.365Z,7.20
2019-04-29T07:12:01.303Z,7.20
2019-04-29T07:16:44.428Z,7.20
2019-04-29T07:21:31.376Z,7.20
2019-04-29T07:26:21.546Z,7.20
2019-04-29T07:31:09.874Z,7.20
2019-04-29T07:35:54.459Z,7.20
2019-04-29T07:40:43.492Z,7.30
2019-04-29T07:45:44.736Z,7.10
2019-04-29T07:50:30.267Z,7.10
2019-04-29T07:55:16.731Z,7.10
2019-04-29T08:00:12.950Z,7.10
2019-04-29T08:04:55.934Z,7.00
2019-04-29T08:09:44.127Z,7.10
2019-04-29T08:14:29.858Z,7.10
2019-04-29T08:19:16.693Z,7.20
2019-04-29T08:24:07.218Z,7.20
2019-04-29T08:29:00.285Z,7.20
2019-04-29T08:33:55.139Z,7.30
2019-04-29T08:38:40.332Z,7.20
2019-04-29T08:43:43.135Z,7.10
2019-04-29T08:48:29.671Z,7.20
2019-04-29T08:53:14.763Z,7.40
2019-04-29T08:57:59.641Z,7.40
2019-04-29T09:02:46.937Z,7.50
2019-04-29T09:07:31.052Z,7.60
2019-04-29T09:12:19.331Z,7.60
2019-04-29T09:17:06.108Z,7.50
2019-04-29T09:21:52.565Z,7.20
2019-04-29T09:26:46.503Z,7.30
2019-04-29T09:31:31.549Z,7.20
2019-04-29T09:36:16.567Z,7.20
2019-04-29T09:41:08.345Z,7.30
2019-04-29T09:46:05.458Z,7.20
2019-04-29T09:50:50.473Z,7.20
2019-04-29T09:55:39.989Z,7.20
2019-04-29T10:00:46.520Z,7.30
2019-04-29T10:05:47.000Z,7.30
2019-04-29T10:10:31.841Z,7.40
2019-04-29T10:15:18.541Z,7.50
2019-04-29T10:20:13.731Z,7.60
2019-04-29T10:24:58.755Z,7.50
2019-04-29T10:29:45.259Z,7.60
2019-04-29T10:34:39.600Z,7.70
2019-04-29T10:39:51.328Z,7.80
2019-04-29T10:44:54.509Z,8.00
2019-04-29T10:49:49.744Z,8.10
2019-04-29T10:54:35.519Z,8.10
2019-04-29T10:59:20.513Z,8.10
2019-04-29T11:04:05.207Z,8.00
2019-04-29T11:08:54.496Z,7.90
2019-04-29T11:13:46.172Z,7.90
2019-04-29T11:18:55.032Z,7.90
2019-04-29T11:24:00.148Z,7.90
2019-04-29T11:28:47.046Z,7.90
2019-04-29T11:33:50.613Z,8.00
2019-04-29T11:38:38.392Z,8.10
2019-04-29T11:43:24.167Z,8.10
2019-04-29T11:48:09.078Z,8.10
2019-04-29T11:52:55.592Z,8.20
2019-04-29T11:57:46.854Z,8.40
2019-04-29T12:02:48.286Z,8.60
2019-04-29T12:07:34.109Z,8.60
2019-04-29T12:12:22.289Z,8.40
2019-04-29T12:17:18.896Z,8.50
2019-04-29T12:22:08.913Z,8.50
2019-04-29T12:26:51.455Z,8.50
2019-04-29T12:32:11.480Z,8.40
2019-04-29T12:36:56.904Z,8.40
2019-04-29T12:42:18.419Z,8.50
2019-04-29T12:47:26.550Z,8.50
2019-04-29T12:52:09.846Z,8.50
2019-04-29T12:56:56.264Z,8.50
2019-04-29T13:02:00.490Z,8.60
2019-04-29T13:07:13.397Z,8.60
2019-04-29T13:12:17.743Z,8.70
2019-04-29T13:17:14.262Z,8.80
2019-04-29T13:21:50.793Z,8.80
2019-04-29T13:26:37.267Z,8.90
2019-04-29T13:37:32.951Z,8.90
2019-04-29T13:42:24.851Z,8.80
2019-04-29T13:47:34.746Z,9.00
2019-04-29T13:52:20.044Z,9.00
2019-04-29T13:57:12.650Z,8.90
2019-04-29T14:02:07.451Z,8.90
2019-04-29T14:06:56.999Z,9.00
2019-04-29T14:11:38.201Z,8.90
2019-04-29T14:16:25.915Z,9.00
2019-04-29T14:21:12.025Z,8.90
2019-04-29T14:25:58.984Z,9.00
2019-04-29T14:30:47.617Z,9.00
2019-04-29T14:36:03.942Z,9.00
2019-04-29T14:40:48.837Z,9.10
2019-04-29T14:45:50.901Z,9.20
2019-04-29T14:50:36.165Z,9.20
2019-04-29T14:55:25.028Z,9.20
2019-04-29T15:00:20.267Z,9.20
2019-04-29T15:05:07.181Z,9.30
2019-04-29T15:09:58.548Z,9.30
2019-04-29T15:15:00.893Z,9.30
2019-04-29T15:20:14.369Z,9.40
2019-04-29T15:24:59.179Z,9.50
2019-04-29T15:29:44.556Z,9.50
2019-04-29T15:34:29.650Z,9.50
2019-04-29T15:39:14.653Z,9.50
2019-04-29T15:44:07.824Z,9.50
2019-04-29T15:48:50.575Z,9.50
2019-04-29T15:53:37.801Z,9.40
2019-04-29T15:58:22.774Z,9.40
2019-04-29T16:03:08.533Z,9.40
2019-04-29T16:08:05.184Z,9.50
2019-04-29T16:12:53.422Z,9.40
2019-04-29T16:17:39.844Z,9.50
2019-04-29T16:22:24.786Z,9.40
2019-04-29T16:27:10.550Z,9.50
2019-04-29T16:32:02.122Z,9.50
2019-04-29T16:36:43.763Z,9.50
2019-04-29T16:41:51.116Z,9.60
2019-04-29T16:46:37.514Z,9.60
2019-04-29T16:51:20.911Z,9.70
2019-04-29T16:56:06.078Z,9.60
2019-04-29T17:00:53.043Z,9.60
2019-04-29T17:05:37.819Z,9.70
2019-04-29T17:10:28.992Z,9.60
2019-04-29T17:15:24.297Z,9.60
2019-04-29T17:20:00.844Z,9.70
2019-04-29T17:24:46.172Z,9.70
2019-04-29T17:34:58.039Z,9.70
2019-04-29T17:35:19.280Z,9.70
2019-04-29T17:39:25.255Z,9.80
2019-04-29T17:44:27.641Z,9.80
2019-04-29T17:49:22.156Z,9.80
2019-04-29T17:54:09.224Z,9.70
2019-04-29T17:59:00.895Z,9.70
2019-04-29T18:04:03.421Z,9.70
2019-04-29T18:09:10.802Z,9.70
2019-04-29T18:13:56.885Z,9.70
2019-04-29T18:18:57.323Z,9.70
2019-04-29T18:23:56.780Z,9.70
2019-04-29T18:28:42.245Z,9.70
2019-04-29T18:33:30.312Z,9.70
2019-04-29T18:38:14.471Z,9.70
2019-04-29T18:42:59.898Z,9.70
2019-04-29T18:47:44.815Z,9.70
2019-04-29T18:52:32.890Z,9.70
2019-04-29T18:57:27.774Z,9.70
2019-04-29T19:02:09.148Z,9.70
2019-04-29T19:06:59.144Z,9.70
2019-04-29T19:11:38.962Z,9.70
2019-04-29T19:16:29.922Z,9.70
2019-04-29T19:21:15.504Z,9.70
2019-04-29T19:26:01.157Z,9.80
2019-04-29T19:30:46.870Z,9.90
2019-04-29T19:35:38.634Z,9.90
2019-04-29T19:40:21.898Z,9.90
2019-04-29T19:45:13.428Z,10.00
2019-04-29T19:49:55.768Z,10.00
2019-04-29T19:54:40.937Z,10.00
2019-04-29T19:59:26.805Z,10.00
2019-04-29T20:04:30.644Z,10.00
2019-04-29T20:09:22.431Z,10.00
2019-04-29T20:14:17.754Z,10.00
2019-04-29T20:21:28.766Z,10.00
2019-04-29T20:24:03.061Z,10.10
2019-04-29T20:28:51.108Z,10.10
2019-04-29T20:33:36.242Z,10.10
2019-04-29T20:38:21.684Z,10.10
2019-04-29T20:43:08.269Z,10.10
2019-04-29T20:47:53.468Z,10.10
2019-04-29T20:52:59.089Z,10.10
2019-04-29T20:57:41.178Z,10.10
2019-04-29T21:02:32.968Z,10.20
2019-04-29T21:07:18.505Z,10.10
2019-04-29T21:12:20.437Z,10.10
2019-04-29T21:17:09.416Z,10.10
2019-04-29T21:21:50.425Z,10.10
2019-04-29T21:26:37.978Z,10.00
2019-04-29T21:31:22.510Z,10.00
2019-04-29T21:36:34.930Z,9.90
2019-04-29T21:41:27.420Z,9.90
2019-04-29T21:46:12.814Z,9.90
2019-04-29T21:50:58.056Z,9.90
2019-04-29T21:55:43.182Z,9.70
2019-04-29T22:00:28.311Z,9.50
2019-04-29T22:05:16.924Z,9.50
2019-04-29T22:10:00.302Z,9.30
2019-04-29T22:14:52.599Z,9.20
2019-04-29T22:19:31.974Z,9.00
2019-04-29T22:24:17.440Z,8.90
2019-04-29T22:29:03.580Z,8.70
2019-04-29T22:33:49.210Z,8.70
2019-04-29T22:38:35.879Z,8.60
2019-04-29T22:43:27.219Z,8.50
2019-04-29T22:48:17.473Z,8.30
2019-04-29T22:53:01.207Z,8.10
2019-04-29T22:57:46.975Z,8.10
2019-04-29T23:02:32.146Z,7.80
2019-04-29T23:07:17.705Z,7.80
2019-04-29T23:12:05.340Z,7.70
2019-04-29T23:16:50.102Z,7.60
2019-04-29T23:21:56.795Z,7.60
2019-04-29T23:26:42.548Z,7.50
2019-04-29T23:31:28.325Z,7.30
2019-04-29T23:36:14.073Z,7.20
2019-04-29T23:40:59.736Z,6.90
2019-04-29T23:45:45.006Z,6.70
2019-04-29T23:50:29.864Z,6.60
2019-04-29T23:55:20.382Z,6.50
